Aeroporto :
LOGIN :

Iscrizione | Disclaimer

   EN    FR    IT 

 










Sommario :    VFR   VFR Marginale   IFR   IFR Intensivo   IFR Molto Intensivo
Visibilità : 
Base nubi : 
>= 8 km
>= 3000ft
5 / 8 km
1000 / 3000 ft
1500m / 5 km
500 / 1000 ft
800 / 1500m
200 / 500 ft
< 800m
< 200 ft
Simboli :   Temporali  Nebbia  Neve Forte  Precipitazioni Forti  Vento > 20 kt
SIGMETs :   Varie  Temporali  Ghiacco  Turbolenza  Onda orograficha  Ceneri Vulcaniche






- Altitudine del aeroporto : 1548 ft


LKNA - Náměšť Air Base

ULTIMO METAR :
  • 122300Z 32009KT 7000 OVC003 02/02 Q1003 RMK AMB

METARs OBSOLETI :
  • 122200Z 32009KT 4000 -RA BR OVC003 02/02 Q1003 RMK AMB
  • 122100Z 31009KT 5000 -RA BR OVC002 03/03 Q1004 RMK AMB

TAF TAF LKNA
Valido dal 12 a 18 ore il 13 a 18 ore UTC


121700Z 1218/1318 33006KT 1500 RA BR BKN001 OVC018
PROB40 1300/1306 VRB02KT 0600 FG VV001
TEMPO 1311/1318 2000 RA BR BKN005
PROB30
TEMPO 1315/1318 1000 RASN BR BKN006



MetMap, La meteo Aeronautica in un colpo d'occhio ! - Copyright ORBIFLY Dicembre 2007 - Disclaimer

ORBIFLY MET'MAP TEAM :

Programmazione e sviluppo : Alexandra Zaïnal
Concezione e sviluppo : Baudouin d'Aumeries
Co-Programmazione e sviluppo : Marc-Olivier Méhu
Supporto tecnico e logistico : Manuel Goepfert
Aiuto per la traduzione : Arnaldo La Scala

Contatto : metmap@orbifly.com




FONTI E CREDITI :

   NOAA